sensor_id;sensor_type;location;lat;lon;timestamp;P1;durP1;ratioP1;P2;durP2;ratioP2
46122;SDS011;31856;-35.404;149.120;2022-09-29T00:24:50;0.20;;;0.20;;
46122;SDS011;31856;-35.404;149.120;2022-09-29T00:27:20;0.20;;;0.20;;
46122;SDS011;31856;-35.404;149.120;2022-09-29T00:29:50;0.32;;;0.28;;
46122;SDS011;31856;-35.404;149.120;2022-09-29T00:32:21;0.30;;;0.30;;
46122;SDS011;31856;-35.404;149.120;2022-09-29T00:34:50;0.32;;;0.30;;
46122;SDS011;31856;-35.404;149.120;2022-09-29T00:37:20;0.65;;;0.30;;
46122;SDS011;31856;-35.404;149.120;2022-09-29T00:39:50;0.65;;;0.57;;
46122;SDS011;31856;-35.404;149.120;2022-09-29T00:42:21;0.30;;;0.30;;
46122;SDS011;31856;-35.404;149.120;2022-09-29T00:45:03;0.30;;;0.30;;
46122;SDS011;31856;-35.404;149.120;2022-09-29T00:47:34;0.43;;;0.40;;
46122;SDS011;31856;-35.404;149.120;2022-09-29T00:50:08;0.20;;;0.20;;
46122;SDS011;31856;-35.404;149.120;2022-09-29T00:52:45;0.30;;;0.30;;
46122;SDS011;31856;-35.404;149.120;2022-09-29T00:55:26;0.30;;;0.30;;
46122;SDS011;31856;-35.404;149.120;2022-09-29T00:58:41;0.30;;;0.30;;
46122;SDS011;31856;-35.404;149.120;2022-09-29T01:00:51;0.30;;;0.30;;
46122;SDS011;31856;-35.404;149.120;2022-09-29T01:03:22;1.75;;;0.30;;
46122;SDS011;31856;-35.404;149.120;2022-09-29T01:05:57;0.30;;;0.30;;
46122;SDS011;31856;-35.404;149.120;2022-09-29T01:08:44;1.08;;;0.30;;
46122;SDS011;31856;-35.404;149.120;2022-09-29T01:11:15;1.00;;;0.20;;
46122;SDS011;31856;-35.404;149.120;2022-09-29T01:13:46;0.30;;;0.30;;
46122;SDS011;31856;-35.404;149.120;2022-09-29T01:16:17;0.28;;;0.28;;
46122;SDS011;31856;-35.404;149.120;2022-09-29T01:18:47;0.30;;;0.30;;
46122;SDS011;31856;-35.404;149.120;2022-09-29T05:03:45;0.43;;;0.30;;
46122;SDS011;31856;-35.404;149.120;2022-09-29T05:06:15;0.65;;;0.30;;
46122;SDS011;31856;-35.404;149.120;2022-09-29T05:08:45;0.68;;;0.30;;
46122;SDS011;31856;-35.404;149.120;2022-09-29T05:11:15;0.30;;;0.30;;
46122;SDS011;31856;-35.404;149.120;2022-09-29T05:13:47;0.85;;;0.30;;
46122;SDS011;31856;-35.404;149.120;2022-09-29T05:16:20;0.30;;;0.30;;
46122;SDS011;31856;-35.404;149.120;2022-09-29T05:18:50;0.30;;;0.30;;
46122;SDS011;31856;-35.404;149.120;2022-09-29T05:21:20;0.50;;;0.30;;
46122;SDS011;31856;-35.404;149.120;2022-09-29T05:23:55;0.30;;;0.30;;
46122;SDS011;31856;-35.404;149.120;2022-09-29T05:26:25;0.40;;;0.35;;
46122;SDS011;31856;-35.404;149.120;2022-09-29T05:28:55;1.17;;;0.30;;
46122;SDS011;31856;-35.404;149.120;2022-09-29T05:31:26;0.30;;;0.30;;
46122;SDS011;31856;-35.404;149.120;2022-09-29T05:33:56;0.30;;;0.30;;
46122;SDS011;31856;-35.404;149.120;2022-09-29T05:36:26;0.43;;;0.35;;
46122;SDS011;31856;-35.404;149.120;2022-09-29T05:38:56;0.30;;;0.30;;
46122;SDS011;31856;-35.404;149.120;2022-09-29T05:41:26;0.30;;;0.30;;
46122;SDS011;31856;-35.404;149.120;2022-09-29T05:43:56;0.30;;;0.30;;
46122;SDS011;31856;-35.404;149.120;2022-09-29T05:46:28;0.30;;;0.30;;
46122;SDS011;31856;-35.404;149.120;2022-09-29T05:48:58;0.30;;;0.30;;
46122;SDS011;31856;-35.404;149.120;2022-09-29T05:51:28;0.30;;;0.30;;
46122;SDS011;31856;-35.404;149.120;2022-09-29T05:53:58;0.25;;;0.25;;
46122;SDS011;31856;-35.404;149.120;2022-09-29T05:56:28;0.30;;;0.30;;
46122;SDS011;31856;-35.404;149.120;2022-09-29T05:58:58;0.47;;;0.40;;
46122;SDS011;31856;-35.404;149.120;2022-09-29T08:44:57;1.88;;;0.75;;
46122;SDS011;31856;-35.404;149.120;2022-09-29T08:47:45;2.53;;;0.75;;
46122;SDS011;31856;-35.404;149.120;2022-09-29T08:50:35;2.03;;;0.60;;
46122;SDS011;31856;-35.404;149.120;2022-09-29T08:53:07;1.73;;;0.50;;
46122;SDS011;31856;-35.404;149.120;2022-09-29T08:56:06;1.85;;;0.57;;
46122;SDS011;31856;-35.404;149.120;2022-09-29T08:58:38;3.37;;;0.70;;
46122;SDS011;31856;-35.404;149.120;2022-09-29T09:01:16;1.45;;;0.57;;
46122;SDS011;31856;-35.404;149.120;2022-09-29T09:04:04;1.95;;;0.60;;
46122;SDS011;31856;-35.404;149.120;2022-09-29T09:19:55;2.55;;;0.65;;
46122;SDS011;31856;-35.404;149.120;2022-09-29T09:27:32;3.78;;;0.65;;
46122;SDS011;31856;-35.404;149.120;2022-09-29T09:30:04;2.80;;;0.70;;
46122;SDS011;31856;-35.404;149.120;2022-09-29T09:32:36;1.85;;;0.50;;
46122;SDS011;31856;-35.404;149.120;2022-09-29T09:38:00;3.30;;;1.40;;
46122;SDS011;31856;-35.404;149.120;2022-09-29T09:40:39;1.23;;;0.68;;
46122;SDS011;31856;-35.404;149.120;2022-09-29T09:45:56;1.33;;;0.65;;
46122;SDS011;31856;-35.404;149.120;2022-09-29T09:48:36;2.20;;;0.70;;
46122;SDS011;31856;-35.404;149.120;2022-09-29T09:51:17;1.23;;;0.60;;
46122;SDS011;31856;-35.404;149.120;2022-09-29T09:53:50;1.83;;;0.70;;
46122;SDS011;31856;-35.404;149.120;2022-09-29T10:01:36;2.67;;;0.90;;
46122;SDS011;31856;-35.404;149.120;2022-09-29T10:04:08;2.00;;;0.73;;
46122;SDS011;31856;-35.404;149.120;2022-09-29T10:06:40;1.67;;;0.80;;
46122;SDS011;31856;-35.404;149.120;2022-09-29T10:09:13;4.05;;;0.70;;
46122;SDS011;31856;-35.404;149.120;2022-09-29T10:11:44;0.70;;;0.60;;
46122;SDS011;31856;-35.404;149.120;2022-09-29T12:58:53;3.28;;;0.60;;
46122;SDS011;31856;-35.404;149.120;2022-09-29T13:01:27;2.95;;;0.90;;
46122;SDS011;31856;-35.404;149.120;2022-09-29T13:04:20;4.07;;;0.70;;
46122;SDS011;31856;-35.404;149.120;2022-09-29T13:10:40;4.25;;;0.80;;
46122;SDS011;31856;-35.404;149.120;2022-09-29T13:12:45;1.95;;;0.70;;
46122;SDS011;31856;-35.404;149.120;2022-09-29T13:15:28;2.38;;;0.90;;
46122;SDS011;31856;-35.404;149.120;2022-09-29T13:23:36;2.67;;;0.70;;
46122;SDS011;31856;-35.404;149.120;2022-09-29T13:29:00;1.77;;;0.80;;
46122;SDS011;31856;-35.404;149.120;2022-09-29T13:31:34;4.78;;;0.80;;
46122;SDS011;31856;-35.404;149.120;2022-09-29T13:34:05;1.30;;;0.70;;
46122;SDS011;31856;-35.404;149.120;2022-09-29T13:36:39;3.00;;;0.75;;
46122;SDS011;31856;-35.404;149.120;2022-09-29T13:39:22;2.92;;;0.60;;
46122;SDS011;31856;-35.404;149.120;2022-09-29T13:41:53;2.58;;;0.60;;
46122;SDS011;31856;-35.404;149.120;2022-09-29T13:44:26;0.77;;;0.50;;
46122;SDS011;31856;-35.404;149.120;2022-09-29T13:47:09;2.28;;;0.50;;
46122;SDS011;31856;-35.404;149.120;2022-09-29T13:49:46;3.35;;;0.68;;
46122;SDS011;31856;-35.404;149.120;2022-09-29T14:38:12;2.75;;;0.70;;
46122;SDS011;31856;-35.404;149.120;2022-09-29T14:40:53;1.63;;;0.73;;
46122;SDS011;31856;-35.404;149.120;2022-09-29T14:43:25;2.45;;;0.90;;
46122;SDS011;31856;-35.404;149.120;2022-09-29T14:52:26;2.33;;;0.68;;
46122;SDS011;31856;-35.404;149.120;2022-09-29T15:00:26;2.17;;;0.57;;
46122;SDS011;31856;-35.404;149.120;2022-09-29T15:02:57;3.17;;;0.60;;
46122;SDS011;31856;-35.404;149.120;2022-09-29T15:05:47;2.33;;;0.80;;
46122;SDS011;31856;-35.404;149.120;2022-09-29T15:08:31;2.70;;;0.75;;
46122;SDS011;31856;-35.404;149.120;2022-09-29T15:11:19;1.45;;;0.70;;
46122;SDS011;31856;-35.404;149.120;2022-09-29T15:13:51;3.00;;;0.63;;
46122;SDS011;31856;-35.404;149.120;2022-09-29T15:29:30;1.40;;;0.88;;
46122;SDS011;31856;-35.404;149.120;2022-09-29T15:32:00;2.42;;;0.80;;
46122;SDS011;31856;-35.404;149.120;2022-09-29T15:34:30;5.68;;;1.10;;
46122;SDS011;31856;-35.404;149.120;2022-09-29T16:09:19;4.03;;;0.68;;
46122;SDS011;31856;-35.404;149.120;2022-09-29T16:11:49;3.50;;;0.50;;
46122;SDS011;31856;-35.404;149.120;2022-09-29T16:14:23;1.17;;;0.60;;
46122;SDS011;31856;-35.404;149.120;2022-09-29T16:16:55;4.35;;;0.68;;
46122;SDS011;31856;-35.404;149.120;2022-09-29T16:19:26;4.05;;;0.60;;
46122;SDS011;31856;-35.404;149.120;2022-09-29T16:22:04;4.45;;;0.65;;
46122;SDS011;31856;-35.404;149.120;2022-09-29T16:24:36;1.58;;;0.50;;
46122;SDS011;31856;-35.404;149.120;2022-09-29T16:27:36;3.00;;;0.50;;
46122;SDS011;31856;-35.404;149.120;2022-09-29T16:30:39;3.20;;;0.65;;
46122;SDS011;31856;-35.404;149.120;2022-09-29T16:32:54;2.15;;;0.93;;
46122;SDS011;31856;-35.404;149.120;2022-09-29T16:35:42;1.20;;;0.63;;
46122;SDS011;31856;-35.404;149.120;2022-09-29T16:40:45;0.90;;;0.60;;
46122;SDS011;31856;-35.404;149.120;2022-09-29T16:43:26;1.50;;;0.52;;
46122;SDS011;31856;-35.404;149.120;2022-09-29T16:45:58;2.97;;;0.60;;
46122;SDS011;31856;-35.404;149.120;2022-09-29T16:48:30;1.60;;;0.70;;
46122;SDS011;31856;-35.404;149.120;2022-09-29T16:51:01;2.95;;;0.60;;
46122;SDS011;31856;-35.404;149.120;2022-09-29T16:53:56;1.77;;;0.57;;
46122;SDS011;31856;-35.404;149.120;2022-09-29T16:56:30;0.82;;;0.50;;
46122;SDS011;31856;-35.404;149.120;2022-09-29T16:59:07;1.10;;;0.50;;
46122;SDS011;31856;-35.404;149.120;2022-09-29T17:01:39;2.33;;;0.60;;
46122;SDS011;31856;-35.404;149.120;2022-09-29T17:04:11;1.05;;;0.60;;
46122;SDS011;31856;-35.404;149.120;2022-09-29T17:06:44;1.45;;;0.40;;
